createdAt,value
2017-11-07T00:02:22.904Z,9.97
2017-11-07T00:04:51.279Z,9.99
2017-11-07T00:07:19.688Z,10.00
2017-11-07T00:09:48.826Z,10.03
2017-11-07T00:12:17.204Z,10.01
2017-11-07T00:14:45.577Z,10.01
2017-11-07T00:17:13.957Z,9.99
2017-11-07T00:19:43.093Z,9.96
2017-11-07T00:22:11.465Z,9.95
2017-11-07T00:24:39.841Z,9.95
2017-11-07T00:27:08.216Z,9.95
2017-11-07T00:29:36.687Z,9.95
2017-11-07T00:32:05.056Z,9.96
2017-11-07T00:34:33.429Z,9.97
2017-11-07T00:37:02.566Z,9.96
2017-11-07T00:39:30.939Z,9.95
2017-11-07T00:41:59.306Z,9.93
2017-11-07T00:44:27.672Z,9.93
2017-11-07T00:46:56.035Z,9.93
2017-11-07T00:49:25.170Z,9.94
2017-11-07T00:51:53.544Z,9.94
2017-11-07T00:54:21.931Z,9.93
2017-11-07T00:56:50.307Z,9.91
2017-11-07T00:59:18.674Z,9.91
2017-11-07T01:01:47.047Z,9.94
2017-11-07T01:04:15.420Z,9.94
2017-11-07T01:06:43.801Z,9.94
2017-11-07T01:09:12.177Z,9.91
2017-11-07T01:11:40.555Z,9.90
2017-11-07T01:14:09.696Z,9.86
2017-11-07T01:16:38.066Z,9.83
2017-11-07T01:19:06.437Z,9.81
2017-11-07T01:21:34.798Z,9.80
2017-11-07T01:24:03.171Z,9.80
2017-11-07T01:26:31.532Z,9.82
2017-11-07T01:29:00.666Z,9.83
2017-11-07T01:31:29.028Z,9.85
2017-11-07T01:33:57.397Z,9.85
2017-11-07T01:36:26.553Z,9.84
2017-11-07T01:38:54.926Z,9.82
2017-11-07T01:41:23.296Z,9.81
2017-11-07T01:43:51.668Z,9.82
2017-11-07T01:46:20.038Z,9.83
2017-11-07T01:48:48.398Z,9.79
2017-11-07T01:51:16.766Z,9.78
2017-11-07T01:53:45.980Z,9.77
2017-11-07T01:56:14.353Z,9.78
2017-11-07T01:58:42.719Z,9.78
2017-11-07T02:01:11.859Z,9.80
2017-11-07T02:03:40.217Z,9.81
2017-11-07T02:06:08.584Z,9.78
2017-11-07T02:08:37.720Z,9.75
2017-11-07T02:11:06.094Z,9.71
2017-11-07T02:13:34.454Z,9.66
2017-11-07T02:16:02.820Z,9.61
2017-11-07T02:18:31.207Z,9.58
2017-11-07T02:20:59.576Z,9.60
2017-11-07T02:23:27.963Z,9.60
2017-11-07T02:25:56.442Z,9.58
2017-11-07T02:28:26.022Z,9.59
2017-11-07T02:30:55.258Z,9.58
2017-11-07T02:33:23.626Z,9.56
2017-11-07T02:35:52.015Z,9.54
2017-11-07T02:38:20.375Z,9.54
2017-11-07T02:40:49.508Z,9.54
2017-11-07T02:43:17.879Z,9.52
2017-11-07T02:45:46.244Z,9.51
2017-11-07T02:48:14.726Z,9.47
2017-11-07T02:50:43.095Z,9.47
2017-11-07T02:53:12.237Z,9.46
2017-11-07T02:55:40.602Z,9.46
2017-11-07T02:58:08.958Z,9.45
2017-11-07T03:00:37.343Z,9.46
2017-11-07T03:03:05.704Z,9.44
2017-11-07T03:05:34.842Z,9.45
2017-11-07T03:08:03.210Z,9.44
2017-11-07T03:10:31.587Z,9.46
2017-11-07T03:12:59.952Z,9.46
2017-11-07T03:15:28.323Z,9.45
2017-11-07T03:17:57.459Z,9.41
2017-11-07T03:20:25.832Z,9.44
2017-11-07T03:22:54.212Z,9.44
2017-11-07T03:25:22.574Z,9.45
2017-11-07T03:27:50.941Z,9.45
2017-11-07T03:30:19.310Z,9.47
2017-11-07T03:32:47.691Z,9.47
2017-11-07T03:35:16.819Z,9.48
2017-11-07T03:37:45.184Z,9.49
2017-11-07T03:40:13.563Z,9.51
2017-11-07T03:42:41.935Z,9.52
2017-11-07T03:45:10.311Z,9.54
2017-11-07T03:47:39.462Z,9.57
2017-11-07T03:50:07.829Z,9.58
2017-11-07T03:52:36.203Z,9.59
2017-11-07T03:55:04.588Z,9.58
2017-11-07T03:57:32.961Z,9.61
2017-11-07T04:00:01.331Z,9.61
2017-11-07T04:02:29.687Z,9.59
2017-11-07T04:04:58.162Z,9.56
2017-11-07T04:07:26.536Z,9.52
2017-11-07T04:09:55.675Z,9.51
2017-11-07T04:12:24.076Z,9.50
2017-11-07T04:14:52.449Z,9.45
2017-11-07T04:17:20.833Z,9.42
2017-11-07T04:19:49.199Z,9.41
2017-11-07T04:22:17.563Z,9.42
2017-11-07T04:24:45.924Z,9.43
2017-11-07T04:27:14.289Z,9.41
2017-11-07T04:29:43.431Z,9.40
2017-11-07T04:32:11.800Z,9.40
2017-11-07T04:34:40.177Z,9.39
2017-11-07T04:37:08.538Z,9.37
2017-11-07T04:39:36.914Z,9.34
2017-11-07T04:42:05.283Z,9.34
2017-11-07T04:44:34.410Z,9.33
2017-11-07T04:47:02.768Z,9.32
2017-11-07T04:49:31.132Z,9.29
2017-11-07T04:52:00.263Z,9.25
2017-11-07T04:54:28.608Z,9.22
2017-11-07T04:56:57.739Z,9.18
2017-11-07T04:59:26.094Z,9.16
2017-11-07T05:01:54.455Z,9.11
2017-11-07T05:04:23.592Z,9.03
2017-11-07T05:06:51.954Z,8.99
2017-11-07T05:09:20.324Z,8.93
2017-11-07T05:11:49.460Z,8.91
2017-11-07T05:14:17.827Z,8.88
2017-11-07T05:16:46.274Z,8.83
2017-11-07T05:19:15.406Z,8.76
2017-11-07T05:21:43.796Z,8.71
2017-11-07T05:24:12.170Z,8.67
2017-11-07T05:26:40.529Z,8.63
2017-11-07T05:29:08.891Z,8.59
2017-11-07T05:31:38.020Z,8.56
2017-11-07T05:34:06.382Z,8.54
2017-11-07T05:36:34.746Z,8.55
2017-11-07T05:39:03.959Z,8.56
2017-11-07T05:41:32.329Z,8.58
2017-11-07T05:44:00.692Z,8.58
2017-11-07T05:46:29.917Z,8.55
2017-11-07T05:48:58.291Z,8.55
2017-11-07T05:51:26.664Z,8.50
2017-11-07T05:53:55.038Z,8.49
2017-11-07T05:56:24.167Z,8.49
2017-11-07T05:58:52.522Z,8.48
2017-11-07T06:01:20.887Z,8.46
2017-11-07T06:03:50.019Z,8.46
2017-11-07T06:06:18.384Z,8.43
2017-11-07T06:08:46.752Z,8.42
2017-11-07T06:11:15.234Z,8.41
2017-11-07T06:13:43.602Z,8.39
2017-11-07T06:16:12.737Z,8.37
2017-11-07T06:18:41.108Z,8.37
2017-11-07T06:21:09.471Z,8.37
2017-11-07T06:23:37.842Z,8.37
2017-11-07T06:26:06.979Z,8.36
2017-11-07T06:28:35.351Z,8.38
2017-11-07T06:31:03.715Z,8.39
2017-11-07T06:33:32.087Z,8.41
2017-11-07T06:36:00.456Z,8.43
2017-11-07T06:38:29.588Z,8.45
2017-11-07T06:40:57.977Z,8.46
2017-11-07T06:43:26.343Z,8.47
2017-11-07T06:45:54.705Z,8.50
2017-11-07T06:48:23.072Z,8.53
2017-11-07T06:50:51.443Z,8.58
2017-11-07T06:53:20.575Z,8.58
2017-11-07T06:55:48.934Z,8.61
2017-11-07T06:58:17.303Z,8.62
2017-11-07T07:00:45.682Z,8.67
2017-11-07T07:03:14.822Z,8.71
2017-11-07T07:05:43.190Z,8.72
2017-11-07T07:08:11.542Z,8.75
2017-11-07T07:10:39.910Z,8.80
2017-11-07T07:13:09.045Z,8.85
2017-11-07T07:15:37.416Z,8.93
2017-11-07T07:18:05.778Z,9.01
2017-11-07T07:20:34.148Z,9.08
2017-11-07T07:23:03.286Z,9.17
2017-11-07T07:25:31.671Z,9.27
2017-11-07T07:28:00.041Z,9.36
2017-11-07T07:30:28.409Z,9.46
2017-11-07T07:32:56.777Z,9.57
2017-11-07T07:35:25.170Z,9.65
2017-11-07T07:37:53.531Z,9.78
2017-11-07T07:40:21.904Z,9.94
2017-11-07T07:42:50.265Z,10.11
2017-11-07T07:45:19.395Z,10.30
2017-11-07T07:47:47.764Z,10.51
2017-11-07T07:50:16.140Z,10.73
2017-11-07T07:52:44.498Z,10.96
2017-11-07T07:55:13.639Z,11.20
2017-11-07T07:57:42.002Z,11.44
2017-11-07T08:00:10.370Z,11.70
2017-11-07T08:02:39.516Z,11.96
2017-11-07T08:05:07.890Z,12.23
2017-11-07T08:07:36.272Z,12.41
2017-11-07T08:10:04.678Z,12.57
2017-11-07T08:12:33.047Z,12.73
2017-11-07T08:15:01.416Z,12.85
2017-11-07T08:17:29.794Z,13.02
2017-11-07T08:19:58.167Z,13.26
2017-11-07T08:22:26.543Z,13.44
2017-11-07T08:24:54.910Z,13.71
2017-11-07T08:27:23.281Z,14.01
2017-11-07T08:29:51.646Z,14.30
2017-11-07T08:32:20.021Z,14.65
2017-11-07T08:34:48.505Z,14.93
2017-11-07T08:37:16.884Z,15.13
2017-11-07T08:39:45.267Z,15.41
2017-11-07T08:42:13.634Z,15.69
2017-11-07T08:44:42.783Z,15.87
2017-11-07T08:47:11.160Z,16.05
2017-11-07T08:49:39.536Z,16.29
2017-11-07T08:52:07.902Z,16.49
2017-11-07T08:54:36.275Z,16.74
2017-11-07T08:57:04.658Z,16.95
2017-11-07T08:59:33.031Z,17.18
2017-11-07T09:02:01.395Z,17.38
2017-11-07T09:04:29.771Z,17.70
2017-11-07T09:06:58.152Z,18.01
2017-11-07T09:09:26.530Z,18.29
2017-11-07T09:11:54.898Z,18.29
2017-11-07T09:14:24.030Z,18.24
2017-11-07T09:16:52.395Z,18.18
2017-11-07T09:19:20.763Z,18.18
2017-11-07T09:21:49.147Z,18.09
2017-11-07T09:24:17.520Z,17.94
2017-11-07T09:26:45.901Z,17.62
2017-11-07T09:29:14.280Z,17.24
2017-11-07T09:31:42.657Z,16.92
2017-11-07T09:34:11.057Z,16.69
2017-11-07T09:36:39.458Z,16.48
2017-11-07T09:39:08.606Z,16.29
2017-11-07T09:41:37.783Z,16.51
2017-11-07T09:44:06.934Z,16.87
2017-11-07T09:46:35.311Z,16.95
2017-11-07T09:49:03.720Z,17.13
2017-11-07T09:51:32.104Z,17.47
2017-11-07T09:54:00.504Z,17.77
2017-11-07T09:56:29.650Z,17.93
2017-11-07T09:58:58.031Z,18.17
2017-11-07T10:01:26.441Z,18.20
2017-11-07T10:03:54.814Z,18.12
2017-11-07T10:06:23.182Z,18.00
2017-11-07T10:08:51.552Z,17.87
2017-11-07T10:11:19.942Z,17.78
2017-11-07T10:13:48.306Z,17.60
2017-11-07T10:16:16.679Z,17.42
2017-11-07T10:18:45.052Z,17.12
2017-11-07T10:21:13.443Z,16.87
2017-11-07T10:23:41.817Z,16.75
2017-11-07T10:26:10.183Z,16.71
2017-11-07T10:28:38.576Z,16.65
2017-11-07T10:31:06.947Z,16.54
2017-11-07T10:33:35.316Z,16.35
2017-11-07T10:36:03.683Z,16.12
2017-11-07T10:38:32.819Z,15.88
2017-11-07T10:41:01.198Z,15.89
2017-11-07T10:43:29.567Z,15.89
2017-11-07T10:45:58.624Z,15.81
2017-11-07T10:48:27.764Z,15.81
2017-11-07T10:50:56.701Z,15.79
2017-11-07T10:53:25.110Z,15.76
2017-11-07T10:55:53.510Z,15.75
2017-11-07T10:58:21.907Z,15.63
2017-11-07T11:00:50.305Z,15.60
2017-11-07T11:03:18.704Z,15.36
2017-11-07T11:05:47.083Z,15.57
2017-11-07T11:08:16.219Z,15.55
2017-11-07T11:10:44.581Z,15.51
2017-11-07T11:13:13.718Z,15.51
2017-11-07T11:15:42.088Z,15.52
2017-11-07T11:18:10.543Z,15.53
2017-11-07T11:20:38.918Z,15.54
2017-11-07T11:23:07.291Z,15.53
2017-11-07T11:25:36.456Z,15.50
2017-11-07T11:28:04.855Z,15.33
2017-11-07T11:30:34.046Z,15.17
2017-11-07T11:33:02.457Z,15.03
2017-11-07T11:35:30.857Z,14.95
2017-11-07T11:37:59.357Z,14.89
2017-11-07T11:40:27.786Z,14.82
2017-11-07T11:42:56.950Z,14.78
2017-11-07T11:45:25.347Z,14.71
2017-11-07T11:47:53.748Z,14.66
2017-11-07T11:50:22.912Z,14.62
2017-11-07T11:52:51.308Z,14.62
2017-11-07T11:55:20.570Z,14.56
2017-11-07T11:57:48.952Z,14.55
2017-11-07T12:00:17.328Z,14.53
2017-11-07T12:02:45.703Z,14.51
2017-11-07T12:05:14.100Z,14.48
2017-11-07T12:07:42.472Z,14.52
2017-11-07T12:10:10.839Z,14.57
2017-11-07T12:12:39.207Z,14.61
2017-11-07T12:15:07.580Z,14.66
2017-11-07T12:17:35.946Z,14.69
2017-11-07T12:20:04.324Z,14.72
2017-11-07T12:22:32.689Z,14.74
2017-11-07T12:25:01.822Z,14.75
2017-11-07T12:27:30.220Z,14.81
2017-11-07T12:29:58.629Z,14.84
2017-11-07T12:32:27.231Z,14.86
2017-11-07T12:34:56.366Z,14.84
2017-11-07T12:37:24.752Z,14.80
2017-11-07T12:39:53.124Z,14.69
2017-11-07T12:42:21.482Z,14.66
2017-11-07T12:44:49.855Z,14.60
2017-11-07T12:47:18.991Z,14.54
2017-11-07T12:49:47.366Z,14.51
2017-11-07T12:52:15.740Z,14.47
2017-11-07T12:54:44.103Z,14.50
2017-11-07T12:57:12.470Z,14.54
2017-11-07T12:59:40.847Z,14.58
2017-11-07T13:02:09.219Z,14.58
2017-11-07T13:04:38.351Z,14.60
2017-11-07T13:07:06.717Z,14.61
2017-11-07T13:09:35.131Z,14.60
2017-11-07T13:12:03.503Z,14.59
2017-11-07T13:14:31.895Z,14.55
2017-11-07T13:17:00.278Z,14.46
2017-11-07T13:19:28.652Z,14.26
2017-11-07T13:21:57.021Z,14.42
2017-11-07T13:24:25.394Z,14.39
2017-11-07T13:26:53.768Z,14.40
2017-11-07T13:29:22.131Z,14.38
2017-11-07T13:31:50.498Z,14.33
2017-11-07T13:34:18.870Z,14.30
2017-11-07T13:36:48.069Z,14.34
2017-11-07T13:39:16.498Z,14.34
2017-11-07T13:41:44.872Z,14.29
2017-11-07T13:44:13.251Z,14.24
2017-11-07T13:46:41.653Z,14.23
2017-11-07T13:49:10.924Z,14.18
2017-11-07T13:51:39.309Z,14.14
2017-11-07T13:54:07.684Z,14.10
2017-11-07T13:56:36.121Z,14.09
2017-11-07T13:59:05.358Z,14.06
2017-11-07T14:01:33.777Z,14.04
2017-11-07T14:04:02.938Z,14.03
2017-11-07T14:06:31.315Z,14.01
2017-11-07T14:08:59.686Z,13.97
2017-11-07T14:11:28.055Z,13.96
2017-11-07T14:13:56.427Z,13.96
2017-11-07T14:16:24.857Z,13.96
2017-11-07T14:18:53.238Z,13.95
2017-11-07T14:21:21.657Z,13.91
2017-11-07T14:23:50.064Z,13.88
2017-11-07T14:26:18.447Z,13.87
2017-11-07T14:28:46.828Z,13.86
2017-11-07T14:31:15.195Z,13.88
2017-11-07T14:33:44.484Z,13.90
2017-11-07T14:36:12.869Z,13.88
2017-11-07T14:38:41.243Z,13.86
2017-11-07T14:41:09.632Z,13.84
2017-11-07T14:43:38.006Z,13.84
2017-11-07T14:46:06.376Z,13.79
2017-11-07T14:48:34.754Z,13.71
2017-11-07T14:53:31.467Z,13.66
2017-11-07T14:55:59.839Z,13.71
2017-11-07T14:58:28.210Z,13.71
2017-11-07T15:00:56.593Z,13.67
2017-11-07T15:03:24.957Z,13.61
2017-11-07T15:05:53.324Z,13.57
2017-11-07T15:08:21.714Z,13.53
2017-11-07T15:10:50.079Z,13.47
2017-11-07T15:13:18.510Z,13.45
2017-11-07T15:15:49.263Z,13.39
2017-11-07T15:18:18.394Z,13.17
2017-11-07T15:20:46.793Z,13.37
2017-11-07T15:23:15.168Z,13.43
2017-11-07T15:25:43.545Z,13.44
2017-11-07T15:28:11.958Z,13.40
2017-11-07T15:30:40.354Z,13.37
2017-11-07T15:33:09.501Z,13.32
2017-11-07T15:35:37.874Z,13.34
2017-11-07T15:38:06.237Z,13.35
2017-11-07T15:40:34.611Z,13.33
2017-11-07T15:43:03.804Z,13.33
2017-11-07T15:45:32.966Z,13.33
2017-11-07T15:48:01.331Z,13.32
2017-11-07T15:50:29.707Z,13.30
2017-11-07T15:52:58.087Z,13.30
2017-11-07T15:55:26.470Z,13.28
2017-11-07T15:57:54.880Z,13.25
2017-11-07T16:00:24.029Z,13.25
2017-11-07T16:02:52.381Z,13.26
2017-11-07T16:05:20.751Z,13.25
2017-11-07T16:07:49.888Z,13.23
2017-11-07T16:10:18.274Z,13.24
2017-11-07T16:12:46.649Z,13.24
2017-11-07T16:15:15.024Z,13.22
2017-11-07T16:17:43.403Z,13.21
2017-11-07T16:20:11.774Z,13.20
2017-11-07T16:22:40.145Z,13.21
2017-11-07T16:25:08.514Z,13.20
2017-11-07T16:27:36.891Z,13.22
2017-11-07T16:30:05.271Z,13.22
2017-11-07T16:32:33.646Z,13.22
2017-11-07T16:35:02.782Z,13.23
2017-11-07T16:37:31.166Z,13.25
2017-11-07T16:39:59.548Z,13.26
2017-11-07T16:42:30.738Z,13.26
2017-11-07T16:44:59.189Z,13.22
2017-11-07T16:47:27.894Z,13.24
2017-11-07T16:49:56.264Z,13.28
2017-11-07T16:52:24.747Z,13.28
2017-11-07T16:54:53.193Z,13.27
2017-11-07T16:57:21.582Z,13.25
2017-11-07T16:59:49.973Z,13.25
2017-11-07T17:02:18.357Z,13.25
2017-11-07T17:04:46.725Z,13.26
2017-11-07T17:07:15.096Z,13.25
2017-11-07T17:09:43.475Z,13.23
2017-11-07T17:12:11.851Z,13.25
2017-11-07T17:14:42.064Z,13.22
2017-11-07T17:17:11.981Z,13.22
2017-11-07T17:19:41.195Z,13.23
2017-11-07T17:22:09.589Z,13.18
2017-11-07T17:24:38.015Z,13.16
2017-11-07T17:27:06.393Z,13.14
2017-11-07T17:29:34.789Z,13.11
2017-11-07T17:32:03.158Z,13.08
2017-11-07T17:34:31.550Z,13.10
2017-11-07T17:36:59.922Z,13.11
2017-11-07T17:39:28.315Z,13.13
2017-11-07T17:41:56.687Z,13.14
2017-11-07T17:44:25.055Z,13.16
2017-11-07T17:46:53.429Z,13.17
2017-11-07T17:49:23.723Z,13.16
2017-11-07T17:51:52.878Z,13.16
2017-11-07T17:54:21.268Z,13.15
2017-11-07T17:56:49.638Z,13.11
2017-11-07T17:59:18.011Z,13.12
2017-11-07T18:01:46.378Z,13.09
2017-11-07T18:04:14.746Z,13.08
2017-11-07T18:06:43.121Z,13.09
2017-11-07T18:09:11.490Z,13.06
2017-11-07T18:11:40.628Z,13.05
2017-11-07T18:14:09.002Z,13.04
2017-11-07T18:16:37.377Z,13.05
2017-11-07T18:19:05.744Z,13.04
2017-11-07T18:21:34.139Z,13.06
2017-11-07T18:24:02.517Z,13.03
2017-11-07T18:26:30.898Z,13.03
2017-11-07T18:28:59.261Z,13.01
2017-11-07T18:31:27.634Z,13.02
2017-11-07T18:33:56.009Z,13.02
2017-11-07T18:36:24.400Z,13.02
2017-11-07T18:38:52.774Z,13.02
2017-11-07T18:41:21.164Z,12.99
2017-11-07T18:43:49.555Z,12.96
2017-11-07T18:46:17.934Z,12.97
2017-11-07T18:48:46.323Z,12.97
2017-11-07T18:51:14.698Z,12.99
2017-11-07T18:53:43.099Z,13.00
2017-11-07T18:56:11.471Z,13.01
2017-11-07T18:58:39.848Z,13.01
2017-11-07T19:01:08.223Z,13.03
2017-11-07T19:03:36.604Z,13.03
2017-11-07T19:06:04.983Z,13.02
2017-11-07T19:08:33.362Z,13.03
2017-11-07T19:11:01.735Z,13.04
2017-11-07T19:13:30.102Z,13.03
2017-11-07T19:15:58.477Z,13.02
2017-11-07T19:18:26.859Z,13.05
2017-11-07T19:20:55.297Z,13.07
2017-11-07T19:23:24.452Z,13.09
2017-11-07T19:25:52.843Z,13.11
2017-11-07T19:28:26.457Z,13.12
2017-11-07T19:30:57.070Z,13.15
2017-11-07T19:33:26.305Z,13.13
2017-11-07T19:35:55.817Z,13.14
2017-11-07T19:38:24.225Z,13.12
2017-11-07T19:40:52.600Z,13.13
2017-11-07T19:43:20.971Z,13.06
2017-11-07T19:45:49.382Z,13.03
2017-11-07T19:48:17.768Z,13.02
2017-11-07T19:50:47.588Z,13.05
2017-11-07T19:53:15.984Z,13.06
2017-11-07T19:55:44.354Z,13.02
2017-11-07T19:58:12.734Z,13.02
2017-11-07T20:00:41.119Z,13.03
2017-11-07T20:03:09.491Z,13.01
2017-11-07T20:05:37.869Z,13.00
2017-11-07T20:08:06.243Z,13.01
2017-11-07T20:10:34.614Z,13.00
2017-11-07T20:13:02.995Z,12.99
2017-11-07T20:15:31.375Z,12.99
2017-11-07T20:17:59.770Z,12.98
2017-11-07T20:20:28.244Z,12.81
2017-11-07T20:22:57.434Z,13.00
2017-11-07T20:25:25.816Z,13.03
2017-11-07T20:27:54.197Z,13.04
2017-11-07T20:30:22.580Z,13.02
2017-11-07T20:32:50.954Z,13.06
2017-11-07T20:35:19.347Z,13.07
2017-11-07T20:37:47.728Z,12.99
2017-11-07T20:40:16.144Z,13.08
2017-11-07T20:42:45.303Z,13.08
2017-11-07T20:45:13.697Z,13.09
2017-11-07T20:47:42.878Z,13.09
2017-11-07T20:50:11.253Z,13.11
2017-11-07T20:52:39.696Z,13.11
2017-11-07T20:55:08.089Z,13.11
2017-11-07T20:57:36.468Z,13.11
2017-11-07T21:00:04.848Z,13.07
2017-11-07T21:02:33.229Z,13.06
2017-11-07T21:05:01.618Z,13.09
2017-11-07T21:07:30.005Z,13.10
2017-11-07T21:09:58.399Z,13.08
2017-11-07T21:12:26.778Z,13.06
2017-11-07T21:14:56.675Z,13.07
2017-11-07T21:17:25.080Z,13.13
2017-11-07T21:19:53.464Z,13.17
2017-11-07T21:22:22.615Z,13.14
2017-11-07T21:24:50.994Z,13.12
2017-11-07T21:27:19.359Z,13.15
2017-11-07T21:29:47.751Z,13.18
2017-11-07T21:32:16.138Z,13.18
2017-11-07T21:34:47.342Z,13.22
2017-11-07T21:37:16.508Z,13.21
2017-11-07T21:39:44.899Z,13.25
2017-11-07T21:42:13.323Z,13.26
2017-11-07T21:44:41.735Z,13.29
2017-11-07T21:47:10.115Z,13.28
2017-11-07T21:49:38.496Z,13.27
2017-11-07T21:52:06.878Z,13.26
2017-11-07T21:54:35.252Z,13.24
2017-11-07T21:57:03.622Z,13.23
2017-11-07T21:59:31.994Z,13.24
2017-11-07T22:02:00.365Z,13.24
2017-11-07T22:04:28.744Z,13.25
2017-11-07T22:06:57.104Z,13.26
2017-11-07T22:09:25.506Z,13.23
2017-11-07T22:11:55.662Z,13.24
2017-11-07T22:14:24.043Z,13.24
2017-11-07T22:16:54.231Z,13.22
2017-11-07T22:19:22.603Z,13.21
2017-11-07T22:21:50.982Z,13.20
2017-11-07T22:24:19.352Z,13.20
2017-11-07T22:26:50.705Z,13.19
2017-11-07T22:29:19.072Z,13.20
2017-11-07T22:31:47.448Z,13.19
2017-11-07T22:34:15.826Z,13.21
2017-11-07T22:36:44.976Z,13.22
2017-11-07T22:39:13.355Z,13.25
2017-11-07T22:41:41.859Z,13.25
2017-11-07T22:44:10.239Z,13.25
2017-11-07T22:46:39.389Z,13.22
2017-11-07T22:49:08.484Z,13.22
2017-11-07T22:51:36.935Z,13.21
2017-11-07T22:54:05.334Z,13.22
2017-11-07T22:56:33.712Z,13.24
2017-11-07T22:59:02.083Z,13.23
2017-11-07T23:01:30.505Z,13.23
2017-11-07T23:03:58.882Z,13.22
2017-11-07T23:06:27.823Z,13.21
2017-11-07T23:08:56.963Z,13.21
2017-11-07T23:11:25.350Z,13.19
2017-11-07T23:13:53.731Z,13.22
2017-11-07T23:16:22.111Z,13.22
2017-11-07T23:18:50.492Z,13.22
2017-11-07T23:21:18.882Z,13.24
2017-11-07T23:23:47.271Z,13.22
2017-11-07T23:26:15.648Z,13.14
2017-11-07T23:28:44.032Z,13.08
2017-11-07T23:31:13.920Z,13.04
2017-11-07T23:33:43.144Z,13.00
2017-11-07T23:36:11.523Z,13.00
2017-11-07T23:38:39.903Z,13.01
2017-11-07T23:41:08.272Z,13.02
2017-11-07T23:43:37.419Z,13.01
2017-11-07T23:46:05.801Z,13.00
2017-11-07T23:48:34.171Z,12.97
2017-11-07T23:51:02.548Z,12.96
2017-11-07T23:53:30.926Z,12.96
2017-11-07T23:55:59.307Z,12.93
2017-11-07T23:58:30.478Z,12.91
